sensor_id;sensor_type;location;lat;lon;timestamp;temperature;humidity
23114;DHT22;11726;50.122;8.832;2023-02-01T00:00:29;5.70;99.90
23114;DHT22;11726;50.122;8.832;2023-02-01T00:02:55;5.70;99.90
23114;DHT22;11726;50.122;8.832;2023-02-01T00:05:22;5.80;99.90
23114;DHT22;11726;50.122;8.832;2023-02-01T00:07:49;5.80;99.90
23114;DHT22;11726;50.122;8.832;2023-02-01T00:10:16;5.80;99.90
23114;DHT22;11726;50.122;8.832;2023-02-01T00:12:43;5.80;99.90
23114;DHT22;11726;50.122;8.832;2023-02-01T00:15:10;5.80;99.90
23114;DHT22;11726;50.122;8.832;2023-02-01T00:17:37;5.90;99.90
23114;DHT22;11726;50.122;8.832;2023-02-01T00:20:04;5.90;99.90
23114;DHT22;11726;50.122;8.832;2023-02-01T00:22:31;5.90;99.90
23114;DHT22;11726;50.122;8.832;2023-02-01T00:24:57;5.90;99.90
23114;DHT22;11726;50.122;8.832;2023-02-01T00:27:24;5.90;99.90
23114;DHT22;11726;50.122;8.832;2023-02-01T00:29:50;5.90;99.90
23114;DHT22;11726;50.122;8.832;2023-02-01T00:32:17;5.90;99.90
23114;DHT22;11726;50.122;8.832;2023-02-01T00:34:43;5.90;99.90
23114;DHT22;11726;50.122;8.832;2023-02-01T00:37:10;5.90;99.90
23114;DHT22;11726;50.122;8.832;2023-02-01T00:39:37;5.90;99.90
23114;DHT22;11726;50.122;8.832;2023-02-01T00:42:03;6.00;99.90
23114;DHT22;11726;50.122;8.832;2023-02-01T00:44:30;6.00;99.90
23114;DHT22;11726;50.122;8.832;2023-02-01T00:47:00;6.00;99.90
23114;DHT22;11726;50.122;8.832;2023-02-01T00:49:27;6.00;99.90
23114;DHT22;11726;50.122;8.832;2023-02-01T00:51:54;6.00;99.90
23114;DHT22;11726;50.122;8.832;2023-02-01T00:54:21;6.10;99.90
23114;DHT22;11726;50.122;8.832;2023-02-01T00:56:47;6.10;99.90
23114;DHT22;11726;50.122;8.832;2023-02-01T00:59:14;6.10;99.90
23114;DHT22;11726;50.122;8.832;2023-02-01T01:01:41;6.10;99.90
23114;DHT22;11726;50.122;8.832;2023-02-01T01:04:07;6.00;99.90
23114;DHT22;11726;50.122;8.832;2023-02-01T01:06:34;6.00;99.90
23114;DHT22;11726;50.122;8.832;2023-02-01T01:09:04;6.00;99.90
23114;DHT22;11726;50.122;8.832;2023-02-01T01:11:34;6.00;99.90
23114;DHT22;11726;50.122;8.832;2023-02-01T01:14:02;6.00;99.90
23114;DHT22;11726;50.122;8.832;2023-02-01T01:16:31;5.90;99.90
23114;DHT22;11726;50.122;8.832;2023-02-01T01:18:58;6.00;99.90
23114;DHT22;11726;50.122;8.832;2023-02-01T01:21:25;6.00;99.90
23114;DHT22;11726;50.122;8.832;2023-02-01T01:23:51;6.00;99.90
23114;DHT22;11726;50.122;8.832;2023-02-01T01:26:27;5.90;99.90
23114;DHT22;11726;50.122;8.832;2023-02-01T01:28:58;6.00;99.90
23114;DHT22;11726;50.122;8.832;2023-02-01T01:31:25;5.90;99.90
23114;DHT22;11726;50.122;8.832;2023-02-01T01:33:55;5.90;99.90
23114;DHT22;11726;50.122;8.832;2023-02-01T01:36:22;6.00;99.90
23114;DHT22;11726;50.122;8.832;2023-02-01T01:38:48;5.90;99.90
23114;DHT22;11726;50.122;8.832;2023-02-01T01:41:22;5.90;99.90
23114;DHT22;11726;50.122;8.832;2023-02-01T01:44:00;6.00;99.90
23114;DHT22;11726;50.122;8.832;2023-02-01T01:46:28;6.00;99.90
23114;DHT22;11726;50.122;8.832;2023-02-01T01:49:20;6.00;99.90
23114;DHT22;11726;50.122;8.832;2023-02-01T01:51:52;6.10;99.90
23114;DHT22;11726;50.122;8.832;2023-02-01T01:54:26;6.10;99.90
23114;DHT22;11726;50.122;8.832;2023-02-01T01:56:58;6.10;99.90
23114;DHT22;11726;50.122;8.832;2023-02-01T01:59:26;6.10;99.90
23114;DHT22;11726;50.122;8.832;2023-02-01T02:01:53;6.10;99.90
23114;DHT22;11726;50.122;8.832;2023-02-01T02:04:21;6.20;99.90
23114;DHT22;11726;50.122;8.832;2023-02-01T02:07:02;6.20;99.90
23114;DHT22;11726;50.122;8.832;2023-02-01T02:09:30;6.20;99.90
23114;DHT22;11726;50.122;8.832;2023-02-01T02:11:56;6.20;99.90
23114;DHT22;11726;50.122;8.832;2023-02-01T02:14:23;6.20;99.90
23114;DHT22;11726;50.122;8.832;2023-02-01T02:17:22;6.20;99.90
23114;DHT22;11726;50.122;8.832;2023-02-01T02:28:51;6.30;99.90
23114;DHT22;11726;50.122;8.832;2023-02-01T02:31:58;6.20;99.90
23114;DHT22;11726;50.122;8.832;2023-02-01T02:34:39;6.20;99.90
23114;DHT22;11726;50.122;8.832;2023-02-01T02:39:42;6.30;99.90
23114;DHT22;11726;50.122;8.832;2023-02-01T02:42:29;6.30;99.90
23114;DHT22;11726;50.122;8.832;2023-02-01T02:48:27;6.20;99.90
23114;DHT22;11726;50.122;8.832;2023-02-01T02:51:10;6.20;99.90
23114;DHT22;11726;50.122;8.832;2023-02-01T02:54:10;6.20;99.90
23114;DHT22;11726;50.122;8.832;2023-02-01T02:56:58;6.20;99.90
23114;DHT22;11726;50.122;8.832;2023-02-01T02:59:45;6.20;99.90
23114;DHT22;11726;50.122;8.832;2023-02-01T03:02:33;6.10;99.90
23114;DHT22;11726;50.122;8.832;2023-02-01T03:05:19;6.10;99.90
23114;DHT22;11726;50.122;8.832;2023-02-01T03:10:38;6.10;99.90
23114;DHT22;11726;50.122;8.832;2023-02-01T03:13:15;6.10;99.90
23114;DHT22;11726;50.122;8.832;2023-02-01T03:15:57;6.20;99.90
23114;DHT22;11726;50.122;8.832;2023-02-01T03:18:38;6.10;99.90
23114;DHT22;11726;50.122;8.832;2023-02-01T03:21:09;6.10;99.90
23114;DHT22;11726;50.122;8.832;2023-02-01T03:23:37;6.20;99.90
23114;DHT22;11726;50.122;8.832;2023-02-01T03:26:11;6.20;99.90
23114;DHT22;11726;50.122;8.832;2023-02-01T03:28:43;6.10;99.90
23114;DHT22;11726;50.122;8.832;2023-02-01T03:31:11;6.10;99.90
23114;DHT22;11726;50.122;8.832;2023-02-01T03:33:40;6.10;99.90
23114;DHT22;11726;50.122;8.832;2023-02-01T03:36:26;6.10;99.90
23114;DHT22;11726;50.122;8.832;2023-02-01T03:39:47;6.10;99.90
23114;DHT22;11726;50.122;8.832;2023-02-01T03:41:57;6.10;99.90
23114;DHT22;11726;50.122;8.832;2023-02-01T03:44:29;6.10;99.90
23114;DHT22;11726;50.122;8.832;2023-02-01T03:49:59;6.10;99.90
23114;DHT22;11726;50.122;8.832;2023-02-01T03:52:48;6.10;99.90
23114;DHT22;11726;50.122;8.832;2023-02-01T03:55:31;6.10;99.90
23114;DHT22;11726;50.122;8.832;2023-02-01T03:58:18;6.10;99.90
23114;DHT22;11726;50.122;8.832;2023-02-01T04:00:57;6.10;99.90
23114;DHT22;11726;50.122;8.832;2023-02-01T04:03:25;6.10;99.90
23114;DHT22;11726;50.122;8.832;2023-02-01T04:05:52;6.20;99.90
23114;DHT22;11726;50.122;8.832;2023-02-01T04:08:20;6.20;99.90
23114;DHT22;11726;50.122;8.832;2023-02-01T04:10:47;6.10;99.90
23114;DHT22;11726;50.122;8.832;2023-02-01T04:13:13;6.20;99.90
23114;DHT22;11726;50.122;8.832;2023-02-01T04:15:40;6.10;99.90
23114;DHT22;11726;50.122;8.832;2023-02-01T04:18:07;6.10;99.90
23114;DHT22;11726;50.122;8.832;2023-02-01T04:20:33;6.10;99.90
23114;DHT22;11726;50.122;8.832;2023-02-01T04:23:00;6.10;99.90
23114;DHT22;11726;50.122;8.832;2023-02-01T04:25:29;6.10;99.90
23114;DHT22;11726;50.122;8.832;2023-02-01T04:27:56;6.10;99.90
23114;DHT22;11726;50.122;8.832;2023-02-01T04:30:22;6.20;99.90
23114;DHT22;11726;50.122;8.832;2023-02-01T04:32:50;6.10;99.90
23114;DHT22;11726;50.122;8.832;2023-02-01T04:35:17;6.20;99.90
23114;DHT22;11726;50.122;8.832;2023-02-01T04:37:44;6.20;99.90
23114;DHT22;11726;50.122;8.832;2023-02-01T04:40:11;6.20;99.90
23114;DHT22;11726;50.122;8.832;2023-02-01T04:42:37;6.10;99.90
23114;DHT22;11726;50.122;8.832;2023-02-01T04:45:04;6.10;99.90
23114;DHT22;11726;50.122;8.832;2023-02-01T04:47:31;6.10;99.90
23114;DHT22;11726;50.122;8.832;2023-02-01T04:49:58;6.10;99.90
23114;DHT22;11726;50.122;8.832;2023-02-01T04:52:24;6.20;99.90
23114;DHT22;11726;50.122;8.832;2023-02-01T04:54:51;6.10;99.90
23114;DHT22;11726;50.122;8.832;2023-02-01T04:57:20;6.20;99.90
23114;DHT22;11726;50.122;8.832;2023-02-01T04:59:47;6.20;99.90
23114;DHT22;11726;50.122;8.832;2023-02-01T05:02:13;6.20;99.90
23114;DHT22;11726;50.122;8.832;2023-02-01T05:04:40;6.20;99.90
23114;DHT22;11726;50.122;8.832;2023-02-01T05:07:06;6.20;99.90
23114;DHT22;11726;50.122;8.832;2023-02-01T05:09:33;6.20;99.90
23114;DHT22;11726;50.122;8.832;2023-02-01T05:11:59;6.20;99.90
23114;DHT22;11726;50.122;8.832;2023-02-01T05:14:45;6.20;99.90
23114;DHT22;11726;50.122;8.832;2023-02-01T05:17:11;6.20;99.90
23114;DHT22;11726;50.122;8.832;2023-02-01T05:19:38;6.20;99.90
23114;DHT22;11726;50.122;8.832;2023-02-01T05:22:04;6.20;99.90
23114;DHT22;11726;50.122;8.832;2023-02-01T05:24:32;6.20;99.90
23114;DHT22;11726;50.122;8.832;2023-02-01T05:26:58;6.20;99.90
23114;DHT22;11726;50.122;8.832;2023-02-01T05:29:25;6.20;99.90
23114;DHT22;11726;50.122;8.832;2023-02-01T05:31:51;6.10;99.90
23114;DHT22;11726;50.122;8.832;2023-02-01T05:34:18;6.20;99.90
23114;DHT22;11726;50.122;8.832;2023-02-01T05:36:45;6.20;99.90
23114;DHT22;11726;50.122;8.832;2023-02-01T05:39:12;6.30;99.90
23114;DHT22;11726;50.122;8.832;2023-02-01T05:41:38;6.20;99.90
23114;DHT22;11726;50.122;8.832;2023-02-01T05:44:05;6.30;99.90
23114;DHT22;11726;50.122;8.832;2023-02-01T05:46:34;6.30;99.90
23114;DHT22;11726;50.122;8.832;2023-02-01T05:49:02;6.40;99.90
23114;DHT22;11726;50.122;8.832;2023-02-01T05:51:28;6.30;99.90
23114;DHT22;11726;50.122;8.832;2023-02-01T05:53:55;6.20;99.90
23114;DHT22;11726;50.122;8.832;2023-02-01T05:56:22;6.20;99.90
23114;DHT22;11726;50.122;8.832;2023-02-01T05:58:48;6.20;99.90
23114;DHT22;11726;50.122;8.832;2023-02-01T06:01:15;6.20;99.90
23114;DHT22;11726;50.122;8.832;2023-02-01T06:03:41;6.30;99.90
23114;DHT22;11726;50.122;8.832;2023-02-01T06:06:08;6.20;99.90
23114;DHT22;11726;50.122;8.832;2023-02-01T06:08:34;6.20;99.90
23114;DHT22;11726;50.122;8.832;2023-02-01T06:11:03;6.10;99.90
23114;DHT22;11726;50.122;8.832;2023-02-01T06:13:30;6.00;99.90
23114;DHT22;11726;50.122;8.832;2023-02-01T06:16:01;6.00;99.90
23114;DHT22;11726;50.122;8.832;2023-02-01T06:18:28;6.00;99.90
23114;DHT22;11726;50.122;8.832;2023-02-01T06:20:57;6.00;99.90
23114;DHT22;11726;50.122;8.832;2023-02-01T06:23:27;5.90;99.90
23114;DHT22;11726;50.122;8.832;2023-02-01T06:25:59;5.90;99.90
23114;DHT22;11726;50.122;8.832;2023-02-01T06:28:27;6.10;99.90
23114;DHT22;11726;50.122;8.832;2023-02-01T06:30:55;6.00;99.90
23114;DHT22;11726;50.122;8.832;2023-02-01T06:33:22;5.90;99.90
23114;DHT22;11726;50.122;8.832;2023-02-01T06:35:48;6.00;99.90
23114;DHT22;11726;50.122;8.832;2023-02-01T06:38:15;5.90;99.90
23114;DHT22;11726;50.122;8.832;2023-02-01T06:40:41;5.80;99.90
23114;DHT22;11726;50.122;8.832;2023-02-01T06:43:08;5.80;99.90
23114;DHT22;11726;50.122;8.832;2023-02-01T06:45:35;5.80;99.90
23114;DHT22;11726;50.122;8.832;2023-02-01T06:48:01;5.80;99.90
23114;DHT22;11726;50.122;8.832;2023-02-01T06:50:28;5.80;99.90
23114;DHT22;11726;50.122;8.832;2023-02-01T06:52:55;5.70;99.90
23114;DHT22;11726;50.122;8.832;2023-02-01T06:55:21;5.60;99.90
23114;DHT22;11726;50.122;8.832;2023-02-01T06:57:52;5.60;99.90
23114;DHT22;11726;50.122;8.832;2023-02-01T07:00:19;5.70;99.90
23114;DHT22;11726;50.122;8.832;2023-02-01T07:02:46;5.70;99.90
23114;DHT22;11726;50.122;8.832;2023-02-01T07:05:12;5.80;99.90
23114;DHT22;11726;50.122;8.832;2023-02-01T07:07:39;5.70;99.90
23114;DHT22;11726;50.122;8.832;2023-02-01T07:10:05;5.60;99.90
23114;DHT22;11726;50.122;8.832;2023-02-01T07:12:32;5.60;99.90
23114;DHT22;11726;50.122;8.832;2023-02-01T07:14:59;5.60;99.90
23114;DHT22;11726;50.122;8.832;2023-02-01T07:17:25;5.60;99.90
23114;DHT22;11726;50.122;8.832;2023-02-01T07:19:52;5.70;99.90
23114;DHT22;11726;50.122;8.832;2023-02-01T07:22:18;5.70;99.90
23114;DHT22;11726;50.122;8.832;2023-02-01T07:24:45;5.70;99.90
23114;DHT22;11726;50.122;8.832;2023-02-01T07:27:12;5.60;99.90
23114;DHT22;11726;50.122;8.832;2023-02-01T07:29:38;5.60;99.90
23114;DHT22;11726;50.122;8.832;2023-02-01T07:32:05;5.50;99.90
23114;DHT22;11726;50.122;8.832;2023-02-01T07:34:32;5.40;99.90
23114;DHT22;11726;50.122;8.832;2023-02-01T07:36:59;5.50;99.90
23114;DHT22;11726;50.122;8.832;2023-02-01T07:39:25;5.60;99.90
23114;DHT22;11726;50.122;8.832;2023-02-01T07:41:54;5.70;99.90
23114;DHT22;11726;50.122;8.832;2023-02-01T07:44:22;5.70;99.90
23114;DHT22;11726;50.122;8.832;2023-02-01T07:46:49;5.70;99.90
23114;DHT22;11726;50.122;8.832;2023-02-01T07:49:16;5.70;99.90
23114;DHT22;11726;50.122;8.832;2023-02-01T07:51:44;5.80;99.90
23114;DHT22;11726;50.122;8.832;2023-02-01T07:54:10;5.90;99.90
23114;DHT22;11726;50.122;8.832;2023-02-01T07:56:37;5.90;99.90
23114;DHT22;11726;50.122;8.832;2023-02-01T07:59:04;6.00;99.90
23114;DHT22;11726;50.122;8.832;2023-02-01T08:01:30;6.10;99.90
23114;DHT22;11726;50.122;8.832;2023-02-01T08:03:59;6.10;99.90
23114;DHT22;11726;50.122;8.832;2023-02-01T08:06:27;6.10;99.90
23114;DHT22;11726;50.122;8.832;2023-02-01T08:08:54;6.10;99.90
23114;DHT22;11726;50.122;8.832;2023-02-01T08:11:22;6.10;99.90
23114;DHT22;11726;50.122;8.832;2023-02-01T08:13:49;6.20;99.90
23114;DHT22;11726;50.122;8.832;2023-02-01T08:16:18;6.20;99.90
23114;DHT22;11726;50.122;8.832;2023-02-01T08:18:45;6.20;99.90
23114;DHT22;11726;50.122;8.832;2023-02-01T08:21:21;6.20;99.90
23114;DHT22;11726;50.122;8.832;2023-02-01T08:23:48;6.20;99.90
23114;DHT22;11726;50.122;8.832;2023-02-01T08:26:20;6.20;99.90
23114;DHT22;11726;50.122;8.832;2023-02-01T08:28:56;6.20;99.90
23114;DHT22;11726;50.122;8.832;2023-02-01T08:31:24;6.20;99.90
23114;DHT22;11726;50.122;8.832;2023-02-01T08:33:54;6.10;99.90
23114;DHT22;11726;50.122;8.832;2023-02-01T08:36:22;6.20;99.90
23114;DHT22;11726;50.122;8.832;2023-02-01T08:38:50;6.30;99.90
23114;DHT22;11726;50.122;8.832;2023-02-01T08:41:19;6.40;99.90
23114;DHT22;11726;50.122;8.832;2023-02-01T08:43:46;6.30;99.90
23114;DHT22;11726;50.122;8.832;2023-02-01T08:46:14;6.30;99.90
23114;DHT22;11726;50.122;8.832;2023-02-01T08:48:41;6.30;99.90
23114;DHT22;11726;50.122;8.832;2023-02-01T08:51:11;6.40;99.90
23114;DHT22;11726;50.122;8.832;2023-02-01T08:53:38;6.30;99.90
23114;DHT22;11726;50.122;8.832;2023-02-01T08:56:09;6.40;99.90
23114;DHT22;11726;50.122;8.832;2023-02-01T08:58:35;6.40;99.90
23114;DHT22;11726;50.122;8.832;2023-02-01T09:01:13;6.50;99.90
23114;DHT22;11726;50.122;8.832;2023-02-01T09:03:40;6.40;99.90
23114;DHT22;11726;50.122;8.832;2023-02-01T09:06:10;6.50;99.90
23114;DHT22;11726;50.122;8.832;2023-02-01T09:08:38;6.50;99.90
23114;DHT22;11726;50.122;8.832;2023-02-01T09:11:10;6.50;99.90
23114;DHT22;11726;50.122;8.832;2023-02-01T09:13:37;6.50;99.90
23114;DHT22;11726;50.122;8.832;2023-02-01T09:16:04;6.60;99.90
23114;DHT22;11726;50.122;8.832;2023-02-01T09:18:31;6.60;99.90
23114;DHT22;11726;50.122;8.832;2023-02-01T09:20:57;6.70;99.90
23114;DHT22;11726;50.122;8.832;2023-02-01T09:23:24;6.70;99.90
23114;DHT22;11726;50.122;8.832;2023-02-01T09:25:51;6.70;99.90
23114;DHT22;11726;50.122;8.832;2023-02-01T09:28:18;6.70;99.90
23114;DHT22;11726;50.122;8.832;2023-02-01T09:30:45;6.70;99.90
23114;DHT22;11726;50.122;8.832;2023-02-01T09:33:12;6.70;99.90
23114;DHT22;11726;50.122;8.832;2023-02-01T09:35:39;6.70;99.90
23114;DHT22;11726;50.122;8.832;2023-02-01T09:38:05;6.80;99.90
23114;DHT22;11726;50.122;8.832;2023-02-01T09:40:34;6.80;99.90
23114;DHT22;11726;50.122;8.832;2023-02-01T09:46:40;6.70;99.90
23114;DHT22;11726;50.122;8.832;2023-02-01T09:49:12;6.70;99.90
23114;DHT22;11726;50.122;8.832;2023-02-01T09:51:44;6.80;99.90
23114;DHT22;11726;50.122;8.832;2023-02-01T09:54:42;6.90;99.90
23114;DHT22;11726;50.122;8.832;2023-02-01T09:57:32;6.90;99.90
23114;DHT22;11726;50.122;8.832;2023-02-01T10:00:06;7.00;99.90
23114;DHT22;11726;50.122;8.832;2023-02-01T10:02:36;6.90;99.90
23114;DHT22;11726;50.122;8.832;2023-02-01T10:05:05;6.90;99.90
23114;DHT22;11726;50.122;8.832;2023-02-01T10:13:21;7.10;99.90
23114;DHT22;11726;50.122;8.832;2023-02-01T10:18:49;7.10;99.90
23114;DHT22;11726;50.122;8.832;2023-02-01T10:26:24;7.00;99.90
23114;DHT22;11726;50.122;8.832;2023-02-01T10:28:56;7.00;99.90
23114;DHT22;11726;50.122;8.832;2023-02-01T10:31:26;7.10;99.90
23114;DHT22;11726;50.122;8.832;2023-02-01T10:33:59;7.10;99.90
23114;DHT22;11726;50.122;8.832;2023-02-01T10:36:52;7.00;99.90
23114;DHT22;11726;50.122;8.832;2023-02-01T10:39:19;7.20;99.90
23114;DHT22;11726;50.122;8.832;2023-02-01T10:41:47;7.20;99.90
23114;DHT22;11726;50.122;8.832;2023-02-01T10:44:18;7.20;99.90
23114;DHT22;11726;50.122;8.832;2023-02-01T10:46:46;7.10;99.90
23114;DHT22;11726;50.122;8.832;2023-02-01T10:49:40;7.20;99.90
23114;DHT22;11726;50.122;8.832;2023-02-01T10:52:15;7.20;99.90
23114;DHT22;11726;50.122;8.832;2023-02-01T10:54:43;7.20;99.90
23114;DHT22;11726;50.122;8.832;2023-02-01T10:57:20;7.20;99.90
23114;DHT22;11726;50.122;8.832;2023-02-01T10:59:47;7.20;99.90
23114;DHT22;11726;50.122;8.832;2023-02-01T11:02:32;7.20;99.90
23114;DHT22;11726;50.122;8.832;2023-02-01T11:05:09;7.30;99.90
23114;DHT22;11726;50.122;8.832;2023-02-01T11:07:39;7.30;99.90
23114;DHT22;11726;50.122;8.832;2023-02-01T11:10:35;7.20;99.90
23114;DHT22;11726;50.122;8.832;2023-02-01T11:13:03;7.30;99.90
23114;DHT22;11726;50.122;8.832;2023-02-01T11:15:30;7.30;99.90
23114;DHT22;11726;50.122;8.832;2023-02-01T11:18:14;7.30;99.90
23114;DHT22;11726;50.122;8.832;2023-02-01T11:20:42;7.30;99.90
23114;DHT22;11726;50.122;8.832;2023-02-01T11:23:15;7.40;99.90
23114;DHT22;11726;50.122;8.832;2023-02-01T11:25:53;7.40;99.90
23114;DHT22;11726;50.122;8.832;2023-02-01T11:28:24;7.40;99.90
23114;DHT22;11726;50.122;8.832;2023-02-01T11:30:54;7.40;99.90
23114;DHT22;11726;50.122;8.832;2023-02-01T11:33:27;7.40;99.90
23114;DHT22;11726;50.122;8.832;2023-02-01T11:35:57;7.40;99.90
23114;DHT22;11726;50.122;8.832;2023-02-01T11:38:28;7.40;99.90
23114;DHT22;11726;50.122;8.832;2023-02-01T11:40:55;7.40;99.90
23114;DHT22;11726;50.122;8.832;2023-02-01T11:43:28;7.40;99.90
23114;DHT22;11726;50.122;8.832;2023-02-01T11:45:57;7.40;99.90
23114;DHT22;11726;50.122;8.832;2023-02-01T11:48:26;7.40;99.90
23114;DHT22;11726;50.122;8.832;2023-02-01T11:51:14;7.40;99.90
23114;DHT22;11726;50.122;8.832;2023-02-01T12:03:00;7.40;99.90
23114;DHT22;11726;50.122;8.832;2023-02-01T12:05:50;7.50;99.90
23114;DHT22;11726;50.122;8.832;2023-02-01T12:08:37;7.50;99.90
23114;DHT22;11726;50.122;8.832;2023-02-01T12:14:06;7.40;99.90
23114;DHT22;11726;50.122;8.832;2023-02-01T12:37:45;7.50;99.90
23114;DHT22;11726;50.122;8.832;2023-02-01T12:40:45;7.50;99.90
23114;DHT22;11726;50.122;8.832;2023-02-01T12:43:19;7.50;99.90
23114;DHT22;11726;50.122;8.832;2023-02-01T12:45:58;7.40;99.90
23114;DHT22;11726;50.122;8.832;2023-02-01T12:48:39;7.40;99.90
23114;DHT22;11726;50.122;8.832;2023-02-01T12:51:15;7.50;99.90
23114;DHT22;11726;50.122;8.832;2023-02-01T12:56:18;7.50;99.90
23114;DHT22;11726;50.122;8.832;2023-02-01T12:58:50;7.50;99.90
23114;DHT22;11726;50.122;8.832;2023-02-01T13:01:26;7.40;99.90
23114;DHT22;11726;50.122;8.832;2023-02-01T13:04:03;7.40;99.90
23114;DHT22;11726;50.122;8.832;2023-02-01T13:06:45;7.40;99.90
23114;DHT22;11726;50.122;8.832;2023-02-01T13:11:59;7.50;99.90
23114;DHT22;11726;50.122;8.832;2023-02-01T13:14:40;7.40;99.90
23114;DHT22;11726;50.122;8.832;2023-02-01T13:17:28;7.40;99.90
23114;DHT22;11726;50.122;8.832;2023-02-01T13:20:34;7.40;99.90
23114;DHT22;11726;50.122;8.832;2023-02-01T13:23:26;7.40;99.90
23114;DHT22;11726;50.122;8.832;2023-02-01T13:25:54;7.50;99.90
23114;DHT22;11726;50.122;8.832;2023-02-01T13:28:46;7.50;99.90
23114;DHT22;11726;50.122;8.832;2023-02-01T13:42:33;7.60;99.90
23114;DHT22;11726;50.122;8.832;2023-02-01T13:45:04;7.60;99.90
23114;DHT22;11726;50.122;8.832;2023-02-01T13:47:42;7.70;99.90
23114;DHT22;11726;50.122;8.832;2023-02-01T13:50:20;7.70;99.90
23114;DHT22;11726;50.122;8.832;2023-02-01T13:55:24;7.70;99.90
23114;DHT22;11726;50.122;8.832;2023-02-01T13:58:09;7.80;99.90
23114;DHT22;11726;50.122;8.832;2023-02-01T14:00:39;7.80;99.90
23114;DHT22;11726;50.122;8.832;2023-02-01T14:03:08;7.80;99.90
23114;DHT22;11726;50.122;8.832;2023-02-01T14:13:37;7.80;99.90
23114;DHT22;11726;50.122;8.832;2023-02-01T14:21:20;7.80;99.90
23114;DHT22;11726;50.122;8.832;2023-02-01T14:26:24;7.90;99.90
23114;DHT22;11726;50.122;8.832;2023-02-01T14:28:53;8.00;99.90
23114;DHT22;11726;50.122;8.832;2023-02-01T14:31:48;7.90;99.90
23114;DHT22;11726;50.122;8.832;2023-02-01T14:34:19;8.10;99.90
23114;DHT22;11726;50.122;8.832;2023-02-01T14:36:57;8.10;99.90
23114;DHT22;11726;50.122;8.832;2023-02-01T14:44:51;8.00;99.90
23114;DHT22;11726;50.122;8.832;2023-02-01T14:52:41;8.20;99.90
23114;DHT22;11726;50.122;8.832;2023-02-01T14:55:27;8.20;99.90
23114;DHT22;11726;50.122;8.832;2023-02-01T14:57:58;8.30;99.90
23114;DHT22;11726;50.122;8.832;2023-02-01T15:00:29;8.30;99.90
23114;DHT22;11726;50.122;8.832;2023-02-01T15:06:00;8.30;99.90
23114;DHT22;11726;50.122;8.832;2023-02-01T15:08:35;8.30;99.90
23114;DHT22;11726;50.122;8.832;2023-02-01T15:11:13;8.30;99.90
23114;DHT22;11726;50.122;8.832;2023-02-01T15:13:47;8.30;99.90
23114;DHT22;11726;50.122;8.832;2023-02-01T15:16:15;8.40;99.90
23114;DHT22;11726;50.122;8.832;2023-02-01T15:18:42;8.30;99.90
23114;DHT22;11726;50.122;8.832;2023-02-01T15:21:24;8.40;99.90
23114;DHT22;11726;50.122;8.832;2023-02-01T15:24:11;8.30;99.90
23114;DHT22;11726;50.122;8.832;2023-02-01T15:26:38;8.30;99.90
23114;DHT22;11726;50.122;8.832;2023-02-01T15:29:05;8.50;99.90
23114;DHT22;11726;50.122;8.832;2023-02-01T15:31:35;8.40;99.90
23114;DHT22;11726;50.122;8.832;2023-02-01T15:34:02;8.40;99.90
23114;DHT22;11726;50.122;8.832;2023-02-01T15:36:29;8.40;99.90
23114;DHT22;11726;50.122;8.832;2023-02-01T15:39:21;8.40;99.90
23114;DHT22;11726;50.122;8.832;2023-02-01T15:41:53;8.40;99.90
23114;DHT22;11726;50.122;8.832;2023-02-01T15:44:38;8.40;99.90
23114;DHT22;11726;50.122;8.832;2023-02-01T15:47:17;8.30;99.90
23114;DHT22;11726;50.122;8.832;2023-02-01T15:49:51;8.30;99.90
23114;DHT22;11726;50.122;8.832;2023-02-01T15:52:26;8.40;99.90
23114;DHT22;11726;50.122;8.832;2023-02-01T15:55:01;8.30;99.90
23114;DHT22;11726;50.122;8.832;2023-02-01T15:57:34;8.30;99.90
23114;DHT22;11726;50.122;8.832;2023-02-01T16:00:05;8.30;99.90
23114;DHT22;11726;50.122;8.832;2023-02-01T16:02:37;8.30;99.90
23114;DHT22;11726;50.122;8.832;2023-02-01T16:05:34;8.30;99.90
23114;DHT22;11726;50.122;8.832;2023-02-01T16:08:23;8.30;99.90
23114;DHT22;11726;50.122;8.832;2023-02-01T16:10:59;8.30;99.90
23114;DHT22;11726;50.122;8.832;2023-02-01T16:13:28;8.30;99.90
23114;DHT22;11726;50.122;8.832;2023-02-01T16:15:54;8.20;99.90
23114;DHT22;11726;50.122;8.832;2023-02-01T16:18:21;8.30;99.90
23114;DHT22;11726;50.122;8.832;2023-02-01T16:20:48;8.30;99.90
23114;DHT22;11726;50.122;8.832;2023-02-01T16:23:14;8.30;99.90
23114;DHT22;11726;50.122;8.832;2023-02-01T16:25:41;8.30;99.90
23114;DHT22;11726;50.122;8.832;2023-02-01T16:28:08;8.30;99.90
23114;DHT22;11726;50.122;8.832;2023-02-01T16:30:35;8.30;99.90
23114;DHT22;11726;50.122;8.832;2023-02-01T16:33:02;8.30;99.90
23114;DHT22;11726;50.122;8.832;2023-02-01T16:35:36;8.30;99.90
23114;DHT22;11726;50.122;8.832;2023-02-01T16:38:11;8.30;99.90
23114;DHT22;11726;50.122;8.832;2023-02-01T16:40:43;8.30;99.90
23114;DHT22;11726;50.122;8.832;2023-02-01T16:43:21;8.20;99.90
23114;DHT22;11726;50.122;8.832;2023-02-01T16:45:50;8.30;99.90
23114;DHT22;11726;50.122;8.832;2023-02-01T16:50:52;8.30;99.90
23114;DHT22;11726;50.122;8.832;2023-02-01T16:53:20;8.20;99.90
23114;DHT22;11726;50.122;8.832;2023-02-01T16:55:48;8.30;99.90
23114;DHT22;11726;50.122;8.832;2023-02-01T16:58:20;8.20;99.90
23114;DHT22;11726;50.122;8.832;2023-02-01T17:00:47;8.20;99.90
23114;DHT22;11726;50.122;8.832;2023-02-01T17:03:14;8.20;99.90
23114;DHT22;11726;50.122;8.832;2023-02-01T17:05:48;8.20;99.90
23114;DHT22;11726;50.122;8.832;2023-02-01T17:08:24;8.20;99.90
23114;DHT22;11726;50.122;8.832;2023-02-01T17:10:53;8.20;99.90
23114;DHT22;11726;50.122;8.832;2023-02-01T17:13:19;8.30;99.90
23114;DHT22;11726;50.122;8.832;2023-02-01T17:15:53;8.20;99.90
23114;DHT22;11726;50.122;8.832;2023-02-01T17:18:21;8.20;99.90
23114;DHT22;11726;50.122;8.832;2023-02-01T17:20:48;8.20;99.90
23114;DHT22;11726;50.122;8.832;2023-02-01T17:23:19;8.20;99.90
23114;DHT22;11726;50.122;8.832;2023-02-01T17:25:45;8.20;99.90
23114;DHT22;11726;50.122;8.832;2023-02-01T17:28:13;8.20;99.90
23114;DHT22;11726;50.122;8.832;2023-02-01T17:30:40;8.20;99.90
23114;DHT22;11726;50.122;8.832;2023-02-01T17:33:18;8.20;99.90
23114;DHT22;11726;50.122;8.832;2023-02-01T17:35:48;8.20;99.90
23114;DHT22;11726;50.122;8.832;2023-02-01T17:38:15;8.10;99.90
23114;DHT22;11726;50.122;8.832;2023-02-01T17:40:41;8.10;99.90
23114;DHT22;11726;50.122;8.832;2023-02-01T17:43:14;8.20;99.90
23114;DHT22;11726;50.122;8.832;2023-02-01T17:45:54;8.10;99.90
23114;DHT22;11726;50.122;8.832;2023-02-01T17:48:22;8.10;99.90
23114;DHT22;11726;50.122;8.832;2023-02-01T17:50:50;8.10;99.90
23114;DHT22;11726;50.122;8.832;2023-02-01T17:53:20;8.10;99.90
23114;DHT22;11726;50.122;8.832;2023-02-01T17:55:50;8.10;99.90
23114;DHT22;11726;50.122;8.832;2023-02-01T17:58:18;8.10;99.90
23114;DHT22;11726;50.122;8.832;2023-02-01T18:00:45;8.00;99.90
23114;DHT22;11726;50.122;8.832;2023-02-01T18:03:23;8.10;99.90
23114;DHT22;11726;50.122;8.832;2023-02-01T18:05:53;8.00;99.90
23114;DHT22;11726;50.122;8.832;2023-02-01T18:08:26;8.00;99.90
23114;DHT22;11726;50.122;8.832;2023-02-01T18:10:58;7.90;99.90
23114;DHT22;11726;50.122;8.832;2023-02-01T18:13:30;7.90;99.90